sensor_id;sensor_type;location;lat;lon;timestamp;temperature;humidity
21023;DHT22;10669;51.076;3.714;2022-12-18T00:01:23;-2.80;1.00
21023;DHT22;10669;51.076;3.714;2022-12-18T00:03:51;-2.90;1.00
21023;DHT22;10669;51.076;3.714;2022-12-18T00:06:17;-3.00;1.00
21023;DHT22;10669;51.076;3.714;2022-12-18T00:08:44;-3.00;1.00
21023;DHT22;10669;51.076;3.714;2022-12-18T00:11:14;-2.90;1.00
21023;DHT22;10669;51.076;3.714;2022-12-18T00:13:41;-2.80;1.00
21023;DHT22;10669;51.076;3.714;2022-12-18T00:16:09;-2.50;1.00
21023;DHT22;10669;51.076;3.714;2022-12-18T00:18:37;-2.40;1.00
21023;DHT22;10669;51.076;3.714;2022-12-18T00:21:05;-2.50;1.00
21023;DHT22;10669;51.076;3.714;2022-12-18T00:23:34;-2.70;1.00
21023;DHT22;10669;51.076;3.714;2022-12-18T00:26:06;-2.90;1.00
21023;DHT22;10669;51.076;3.714;2022-12-18T00:28:32;-2.80;1.00
21023;DHT22;10669;51.076;3.714;2022-12-18T00:33:31;-2.70;1.00
21023;DHT22;10669;51.076;3.714;2022-12-18T00:36:04;-2.80;1.00
21023;DHT22;10669;51.076;3.714;2022-12-18T00:38:31;-3.10;1.00
21023;DHT22;10669;51.076;3.714;2022-12-18T00:40:57;-3.00;1.00
21023;DHT22;10669;51.076;3.714;2022-12-18T00:43:24;-3.20;1.00
21023;DHT22;10669;51.076;3.714;2022-12-18T00:45:50;-3.30;1.00
21023;DHT22;10669;51.076;3.714;2022-12-18T00:48:17;-3.30;1.00
21023;DHT22;10669;51.076;3.714;2022-12-18T00:50:48;-2.90;1.00
21023;DHT22;10669;51.076;3.714;2022-12-18T00:53:14;-2.70;1.00
21023;DHT22;10669;51.076;3.714;2022-12-18T00:55:40;-3.00;1.00
21023;DHT22;10669;51.076;3.714;2022-12-18T00:58:07;-3.10;1.00
21023;DHT22;10669;51.076;3.714;2022-12-18T01:00:33;-2.80;1.00
21023;DHT22;10669;51.076;3.714;2022-12-18T01:02:59;-2.70;1.00
21023;DHT22;10669;51.076;3.714;2022-12-18T01:05:25;-3.00;1.00
21023;DHT22;10669;51.076;3.714;2022-12-18T01:07:53;-3.20;1.00
21023;DHT22;10669;51.076;3.714;2022-12-18T01:10:21;-3.70;1.00
21023;DHT22;10669;51.076;3.714;2022-12-18T01:12:46;-3.30;1.00
21023;DHT22;10669;51.076;3.714;2022-12-18T01:15:14;-3.20;1.00
21023;DHT22;10669;51.076;3.714;2022-12-18T01:17:43;-3.20;1.00
21023;DHT22;10669;51.076;3.714;2022-12-18T01:20:10;-3.00;1.00
21023;DHT22;10669;51.076;3.714;2022-12-18T01:22:38;-2.90;1.00
21023;DHT22;10669;51.076;3.714;2022-12-18T01:25:04;-3.00;1.00
21023;DHT22;10669;51.076;3.714;2022-12-18T01:27:33;-2.90;1.00
21023;DHT22;10669;51.076;3.714;2022-12-18T01:30:00;-2.60;1.00
21023;DHT22;10669;51.076;3.714;2022-12-18T01:32:29;-2.60;1.00
21023;DHT22;10669;51.076;3.714;2022-12-18T01:34:56;-2.70;1.00
21023;DHT22;10669;51.076;3.714;2022-12-18T01:37:22;-2.80;1.00
21023;DHT22;10669;51.076;3.714;2022-12-18T01:39:50;-3.00;1.00
21023;DHT22;10669;51.076;3.714;2022-12-18T01:42:17;-3.10;1.00
21023;DHT22;10669;51.076;3.714;2022-12-18T01:47:38;-3.20;1.00
21023;DHT22;10669;51.076;3.714;2022-12-18T01:53:06;-3.40;1.00
21023;DHT22;10669;51.076;3.714;2022-12-18T01:55:48;-3.40;1.00
21023;DHT22;10669;51.076;3.714;2022-12-18T01:58:16;-3.50;1.00
21023;DHT22;10669;51.076;3.714;2022-12-18T02:00:43;-3.70;1.00
21023;DHT22;10669;51.076;3.714;2022-12-18T02:03:09;-3.50;1.00
21023;DHT22;10669;51.076;3.714;2022-12-18T02:08:22;-3.70;1.00
21023;DHT22;10669;51.076;3.714;2022-12-18T02:11:01;-3.70;1.00
21023;DHT22;10669;51.076;3.714;2022-12-18T02:18:45;-3.50;1.00
21023;DHT22;10669;51.076;3.714;2022-12-18T02:23:47;-3.30;1.00
21023;DHT22;10669;51.076;3.714;2022-12-18T02:26:34;-3.70;1.00
21023;DHT22;10669;51.076;3.714;2022-12-18T02:29:18;-3.90;1.00
21023;DHT22;10669;51.076;3.714;2022-12-18T02:31:53;-3.70;1.00
21023;DHT22;10669;51.076;3.714;2022-12-18T02:34:24;-3.40;1.00
21023;DHT22;10669;51.076;3.714;2022-12-18T02:36:54;-3.20;1.00
21023;DHT22;10669;51.076;3.714;2022-12-18T02:39:25;-3.10;1.00
21023;DHT22;10669;51.076;3.714;2022-12-18T02:41:53;-3.30;1.00
21023;DHT22;10669;51.076;3.714;2022-12-18T02:44:20;-3.50;1.00
21023;DHT22;10669;51.076;3.714;2022-12-18T02:46:53;-3.40;1.00
21023;DHT22;10669;51.076;3.714;2022-12-18T02:52:25;-3.10;1.00
21023;DHT22;10669;51.076;3.714;2022-12-18T03:00:23;-3.20;1.00
21023;DHT22;10669;51.076;3.714;2022-12-18T03:02:56;-3.40;1.00
21023;DHT22;10669;51.076;3.714;2022-12-18T03:05:36;-3.30;1.00
21023;DHT22;10669;51.076;3.714;2022-12-18T03:08:06;-3.30;1.00
21023;DHT22;10669;51.076;3.714;2022-12-18T03:10:37;-3.30;1.00
21023;DHT22;10669;51.076;3.714;2022-12-18T03:13:16;-3.40;1.00
21023;DHT22;10669;51.076;3.714;2022-12-18T03:15:50;-3.60;1.00
21023;DHT22;10669;51.076;3.714;2022-12-18T03:18:53;-3.60;1.00
21023;DHT22;10669;51.076;3.714;2022-12-18T03:21:25;-3.70;1.00
21023;DHT22;10669;51.076;3.714;2022-12-18T03:23:54;-3.80;1.00
21023;DHT22;10669;51.076;3.714;2022-12-18T03:26:24;-3.60;1.00
21023;DHT22;10669;51.076;3.714;2022-12-18T03:28:56;-3.60;1.00
21023;DHT22;10669;51.076;3.714;2022-12-18T03:31:26;-3.50;1.00
21023;DHT22;10669;51.076;3.714;2022-12-18T03:33:56;-3.30;1.00
21023;DHT22;10669;51.076;3.714;2022-12-18T03:36:24;-3.60;1.00
21023;DHT22;10669;51.076;3.714;2022-12-18T03:38:51;-3.50;1.00
21023;DHT22;10669;51.076;3.714;2022-12-18T03:46:55;-3.70;1.00
21023;DHT22;10669;51.076;3.714;2022-12-18T03:49:35;-3.80;1.00
21023;DHT22;10669;51.076;3.714;2022-12-18T03:52:10;-4.00;1.00
21023;DHT22;10669;51.076;3.714;2022-12-18T03:54:39;-4.10;1.00
21023;DHT22;10669;51.076;3.714;2022-12-18T03:57:12;-3.90;1.00
21023;DHT22;10669;51.076;3.714;2022-12-18T03:59:45;-4.10;1.00
21023;DHT22;10669;51.076;3.714;2022-12-18T04:02:15;-4.00;1.00
21023;DHT22;10669;51.076;3.714;2022-12-18T04:04:42;-4.00;1.00
21023;DHT22;10669;51.076;3.714;2022-12-18T04:07:09;-4.10;1.00
21023;DHT22;10669;51.076;3.714;2022-12-18T04:09:38;-3.90;1.00
21023;DHT22;10669;51.076;3.714;2022-12-18T04:12:05;-3.90;1.00
21023;DHT22;10669;51.076;3.714;2022-12-18T04:14:32;-4.10;1.00
21023;DHT22;10669;51.076;3.714;2022-12-18T04:17:02;-4.10;1.00
21023;DHT22;10669;51.076;3.714;2022-12-18T04:19:31;-4.10;1.00
21023;DHT22;10669;51.076;3.714;2022-12-18T04:21:58;-4.20;1.00
21023;DHT22;10669;51.076;3.714;2022-12-18T04:24:24;-4.20;1.00
21023;DHT22;10669;51.076;3.714;2022-12-18T04:26:51;-4.20;1.00
21023;DHT22;10669;51.076;3.714;2022-12-18T04:29:18;-4.30;1.00
21023;DHT22;10669;51.076;3.714;2022-12-18T04:31:46;-4.40;1.00
21023;DHT22;10669;51.076;3.714;2022-12-18T04:34:13;-4.40;1.00
21023;DHT22;10669;51.076;3.714;2022-12-18T04:36:41;-4.50;1.00
21023;DHT22;10669;51.076;3.714;2022-12-18T04:39:08;-4.40;1.00
21023;DHT22;10669;51.076;3.714;2022-12-18T04:41:40;-4.40;1.00
21023;DHT22;10669;51.076;3.714;2022-12-18T04:44:09;-4.20;6.80
21023;DHT22;10669;51.076;3.714;2022-12-18T04:46:35;-4.30;2.20
21023;DHT22;10669;51.076;3.714;2022-12-18T04:49:01;-4.40;1.00
21023;DHT22;10669;51.076;3.714;2022-12-18T04:51:30;-4.30;6.00
21023;DHT22;10669;51.076;3.714;2022-12-18T04:53:57;-4.50;1.00
21023;DHT22;10669;51.076;3.714;2022-12-18T04:56:23;-4.30;7.40
21023;DHT22;10669;51.076;3.714;2022-12-18T04:58:49;-4.40;1.00
21023;DHT22;10669;51.076;3.714;2022-12-18T05:01:18;-4.30;1.00
21023;DHT22;10669;51.076;3.714;2022-12-18T05:03:44;-4.20;1.00
21023;DHT22;10669;51.076;3.714;2022-12-18T05:06:11;-4.00;1.00
21023;DHT22;10669;51.076;3.714;2022-12-18T05:08:37;-4.00;1.00
21023;DHT22;10669;51.076;3.714;2022-12-18T05:11:07;-3.90;1.00
21023;DHT22;10669;51.076;3.714;2022-12-18T05:13:35;-3.70;1.00
21023;DHT22;10669;51.076;3.714;2022-12-18T05:16:02;-3.60;1.00
21023;DHT22;10669;51.076;3.714;2022-12-18T05:18:29;-3.60;1.00
21023;DHT22;10669;51.076;3.714;2022-12-18T05:20:58;-3.80;1.00
21023;DHT22;10669;51.076;3.714;2022-12-18T05:23:27;-3.90;1.00
21023;DHT22;10669;51.076;3.714;2022-12-18T05:25:56;-3.90;1.00
21023;DHT22;10669;51.076;3.714;2022-12-18T05:28:23;-4.00;1.00
21023;DHT22;10669;51.076;3.714;2022-12-18T05:30:52;-3.80;1.00
21023;DHT22;10669;51.076;3.714;2022-12-18T05:33:20;-3.90;1.00
21023;DHT22;10669;51.076;3.714;2022-12-18T05:35:57;-3.80;1.00
21023;DHT22;10669;51.076;3.714;2022-12-18T05:38:26;-3.60;1.00
21023;DHT22;10669;51.076;3.714;2022-12-18T05:40:53;-3.60;1.00
21023;DHT22;10669;51.076;3.714;2022-12-18T05:43:21;-3.70;1.00
21023;DHT22;10669;51.076;3.714;2022-12-18T05:45:49;-3.70;1.00
21023;DHT22;10669;51.076;3.714;2022-12-18T05:48:18;-3.80;1.00
21023;DHT22;10669;51.076;3.714;2022-12-18T05:50:48;-3.90;1.00
21023;DHT22;10669;51.076;3.714;2022-12-18T05:53:18;-4.20;1.00
21023;DHT22;10669;51.076;3.714;2022-12-18T05:55:45;-4.30;1.00
21023;DHT22;10669;51.076;3.714;2022-12-18T05:58:14;-4.00;1.00
21023;DHT22;10669;51.076;3.714;2022-12-18T06:00:44;-3.80;1.00
21023;DHT22;10669;51.076;3.714;2022-12-18T06:03:13;-3.70;1.00
21023;DHT22;10669;51.076;3.714;2022-12-18T06:05:43;-3.50;1.00
21023;DHT22;10669;51.076;3.714;2022-12-18T06:08:10;-3.50;1.00
21023;DHT22;10669;51.076;3.714;2022-12-18T06:10:37;-3.50;1.00
21023;DHT22;10669;51.076;3.714;2022-12-18T06:13:05;-3.60;1.00
21023;DHT22;10669;51.076;3.714;2022-12-18T06:15:31;-3.80;1.00
21023;DHT22;10669;51.076;3.714;2022-12-18T06:18:00;-3.80;1.00
21023;DHT22;10669;51.076;3.714;2022-12-18T06:20:28;-3.70;1.00
21023;DHT22;10669;51.076;3.714;2022-12-18T06:22:55;-3.80;1.00
21023;DHT22;10669;51.076;3.714;2022-12-18T06:25:24;-4.00;1.00
21023;DHT22;10669;51.076;3.714;2022-12-18T06:27:55;-3.70;1.00
21023;DHT22;10669;51.076;3.714;2022-12-18T06:30:24;-3.60;1.00
21023;DHT22;10669;51.076;3.714;2022-12-18T06:32:51;-3.60;1.00
21023;DHT22;10669;51.076;3.714;2022-12-18T06:35:17;-3.60;1.00
21023;DHT22;10669;51.076;3.714;2022-12-18T06:37:42;-3.60;1.00
21023;DHT22;10669;51.076;3.714;2022-12-18T06:40:08;-3.90;1.00
21023;DHT22;10669;51.076;3.714;2022-12-18T06:42:34;-4.00;1.00
21023;DHT22;10669;51.076;3.714;2022-12-18T06:45:03;-3.90;1.00
21023;DHT22;10669;51.076;3.714;2022-12-18T06:47:30;-4.30;1.00
21023;DHT22;10669;51.076;3.714;2022-12-18T06:49:58;-3.90;1.00
21023;DHT22;10669;51.076;3.714;2022-12-18T06:52:25;-3.90;1.00
21023;DHT22;10669;51.076;3.714;2022-12-18T06:54:50;-3.60;1.00
21023;DHT22;10669;51.076;3.714;2022-12-18T06:57:17;-3.50;1.00
21023;DHT22;10669;51.076;3.714;2022-12-18T06:59:44;-3.60;1.00
21023;DHT22;10669;51.076;3.714;2022-12-18T07:02:16;-3.80;1.00
21023;DHT22;10669;51.076;3.714;2022-12-18T07:04:43;-3.90;1.00
21023;DHT22;10669;51.076;3.714;2022-12-18T07:07:10;-4.10;1.00
21023;DHT22;10669;51.076;3.714;2022-12-18T07:09:38;-4.50;1.00
21023;DHT22;10669;51.076;3.714;2022-12-18T07:12:03;-4.70;1.00
21023;DHT22;10669;51.076;3.714;2022-12-18T07:14:32;-4.60;1.00
21023;DHT22;10669;51.076;3.714;2022-12-18T07:16:59;-4.50;1.00
21023;DHT22;10669;51.076;3.714;2022-12-18T07:19:25;-4.40;1.00
21023;DHT22;10669;51.076;3.714;2022-12-18T07:21:51;-3.90;1.00
21023;DHT22;10669;51.076;3.714;2022-12-18T07:24:17;-3.60;1.00
21023;DHT22;10669;51.076;3.714;2022-12-18T07:26:46;-2.90;1.00
21023;DHT22;10669;51.076;3.714;2022-12-18T07:29:13;-3.70;1.00
21023;DHT22;10669;51.076;3.714;2022-12-18T07:31:39;-3.80;1.00
21023;DHT22;10669;51.076;3.714;2022-12-18T07:34:10;-3.50;1.00
21023;DHT22;10669;51.076;3.714;2022-12-18T07:36:55;-3.90;1.00
21023;DHT22;10669;51.076;3.714;2022-12-18T07:39:24;-3.90;1.00
21023;DHT22;10669;51.076;3.714;2022-12-18T07:41:50;-3.60;1.00
21023;DHT22;10669;51.076;3.714;2022-12-18T07:44:36;-3.90;1.00
21023;DHT22;10669;51.076;3.714;2022-12-18T07:47:07;-3.90;1.00
21023;DHT22;10669;51.076;3.714;2022-12-18T07:49:32;-2.90;1.00
21023;DHT22;10669;51.076;3.714;2022-12-18T07:51:59;-3.90;1.00
21023;DHT22;10669;51.076;3.714;2022-12-18T07:54:27;-3.90;1.00
21023;DHT22;10669;51.076;3.714;2022-12-18T07:56:56;-4.10;1.00
21023;DHT22;10669;51.076;3.714;2022-12-18T07:59:22;-4.10;1.00
21023;DHT22;10669;51.076;3.714;2022-12-18T08:01:51;-4.00;1.00
21023;DHT22;10669;51.076;3.714;2022-12-18T08:04:16;-4.00;1.00
21023;DHT22;10669;51.076;3.714;2022-12-18T08:06:43;-4.00;1.00
21023;DHT22;10669;51.076;3.714;2022-12-18T08:09:10;-3.80;1.00
21023;DHT22;10669;51.076;3.714;2022-12-18T08:11:36;-3.70;1.00
21023;DHT22;10669;51.076;3.714;2022-12-18T08:14:03;-3.70;1.00
21023;DHT22;10669;51.076;3.714;2022-12-18T08:16:30;-3.60;1.00
21023;DHT22;10669;51.076;3.714;2022-12-18T08:18:58;-3.50;1.00
21023;DHT22;10669;51.076;3.714;2022-12-18T08:21:27;-3.60;1.00
21023;DHT22;10669;51.076;3.714;2022-12-18T08:23:57;-3.90;1.00
21023;DHT22;10669;51.076;3.714;2022-12-18T08:26:27;-3.70;1.00
21023;DHT22;10669;51.076;3.714;2022-12-18T08:28:55;-3.70;1.00
21023;DHT22;10669;51.076;3.714;2022-12-18T08:31:22;-3.40;1.00
21023;DHT22;10669;51.076;3.714;2022-12-18T08:33:49;-3.30;1.00
21023;DHT22;10669;51.076;3.714;2022-12-18T08:36:15;-2.90;1.00
21023;DHT22;10669;51.076;3.714;2022-12-18T08:38:42;-3.20;1.00
21023;DHT22;10669;51.076;3.714;2022-12-18T08:41:12;-2.30;1.00
21023;DHT22;10669;51.076;3.714;2022-12-18T08:43:38;-3.00;1.00
21023;DHT22;10669;51.076;3.714;2022-12-18T08:46:25;-2.90;1.00
21023;DHT22;10669;51.076;3.714;2022-12-18T08:48:52;-3.00;1.00
21023;DHT22;10669;51.076;3.714;2022-12-18T08:51:19;-2.70;1.00
21023;DHT22;10669;51.076;3.714;2022-12-18T08:53:45;-2.90;1.00
21023;DHT22;10669;51.076;3.714;2022-12-18T08:56:15;-3.10;1.00
21023;DHT22;10669;51.076;3.714;2022-12-18T08:58:44;-2.80;1.00
21023;DHT22;10669;51.076;3.714;2022-12-18T09:01:15;-2.70;1.00
21023;DHT22;10669;51.076;3.714;2022-12-18T09:03:44;-2.50;1.00
21023;DHT22;10669;51.076;3.714;2022-12-18T09:06:19;-2.40;1.00
21023;DHT22;10669;51.076;3.714;2022-12-18T09:08:47;-2.70;1.00
21023;DHT22;10669;51.076;3.714;2022-12-18T09:11:24;-2.70;1.00
21023;DHT22;10669;51.076;3.714;2022-12-18T09:13:51;-2.50;1.00
21023;DHT22;10669;51.076;3.714;2022-12-18T09:16:18;-2.50;1.00
21023;DHT22;10669;51.076;3.714;2022-12-18T09:18:45;-2.70;1.00
21023;DHT22;10669;51.076;3.714;2022-12-18T09:21:15;-2.40;1.00
21023;DHT22;10669;51.076;3.714;2022-12-18T09:23:44;-2.30;1.00
21023;DHT22;10669;51.076;3.714;2022-12-18T09:26:10;-2.00;1.00
21023;DHT22;10669;51.076;3.714;2022-12-18T09:28:35;-2.20;1.00
21023;DHT22;10669;51.076;3.714;2022-12-18T09:31:08;-2.50;1.00
21023;DHT22;10669;51.076;3.714;2022-12-18T09:33:37;-2.20;1.00
21023;DHT22;10669;51.076;3.714;2022-12-18T09:36:06;-2.10;1.00
21023;DHT22;10669;51.076;3.714;2022-12-18T09:38:33;-2.20;1.00
21023;DHT22;10669;51.076;3.714;2022-12-18T09:44:13;-1.90;1.00
21023;DHT22;10669;51.076;3.714;2022-12-18T09:46:47;-1.80;1.00
21023;DHT22;10669;51.076;3.714;2022-12-18T09:49:18;-1.70;1.00
21023;DHT22;10669;51.076;3.714;2022-12-18T09:51:48;-1.70;1.00
21023;DHT22;10669;51.076;3.714;2022-12-18T09:54:20;-1.60;1.00
21023;DHT22;10669;51.076;3.714;2022-12-18T09:56:47;-1.60;1.00
21023;DHT22;10669;51.076;3.714;2022-12-18T09:59:36;-1.70;1.00
21023;DHT22;10669;51.076;3.714;2022-12-18T10:02:15;-1.50;1.00
21023;DHT22;10669;51.076;3.714;2022-12-18T10:04:41;-1.80;1.00
21023;DHT22;10669;51.076;3.714;2022-12-18T10:08:19;-1.70;1.00
21023;DHT22;10669;51.076;3.714;2022-12-18T10:11:10;-1.40;1.00
21023;DHT22;10669;51.076;3.714;2022-12-18T10:13:38;-1.40;1.00
21023;DHT22;10669;51.076;3.714;2022-12-18T10:16:17;-1.20;1.00
21023;DHT22;10669;51.076;3.714;2022-12-18T10:26:54;-1.80;1.00
21023;DHT22;10669;51.076;3.714;2022-12-18T10:29:22;-1.40;1.00
21023;DHT22;10669;51.076;3.714;2022-12-18T10:31:51;-0.70;1.00
21023;DHT22;10669;51.076;3.714;2022-12-18T10:34:18;-1.30;1.00
21023;DHT22;10669;51.076;3.714;2022-12-18T10:36:47;-1.40;1.00
21023;DHT22;10669;51.076;3.714;2022-12-18T10:39:20;-1.20;1.00
21023;DHT22;10669;51.076;3.714;2022-12-18T10:41:50;-1.30;1.00
21023;DHT22;10669;51.076;3.714;2022-12-18T10:44:21;-1.00;1.00
21023;DHT22;10669;51.076;3.714;2022-12-18T10:46:51;-0.80;1.00
21023;DHT22;10669;51.076;3.714;2022-12-18T10:49:27;-1.00;1.00
21023;DHT22;10669;51.076;3.714;2022-12-18T10:52:14;-1.10;1.00
21023;DHT22;10669;51.076;3.714;2022-12-18T10:54:59;-0.90;1.00
21023;DHT22;10669;51.076;3.714;2022-12-18T11:02:46;-0.70;1.00
21023;DHT22;10669;51.076;3.714;2022-12-18T11:05:34;-0.70;1.00
21023;DHT22;10669;51.076;3.714;2022-12-18T11:08:02;-0.50;1.00
21023;DHT22;10669;51.076;3.714;2022-12-18T11:10:36;-0.30;1.00
21023;DHT22;10669;51.076;3.714;2022-12-18T11:13:21;-0.30;1.00
21023;DHT22;10669;51.076;3.714;2022-12-18T11:15:48;-0.30;1.00
21023;DHT22;10669;51.076;3.714;2022-12-18T11:21:06;-0.20;1.00
21023;DHT22;10669;51.076;3.714;2022-12-18T11:23:34;-0.40;1.00
21023;DHT22;10669;51.076;3.714;2022-12-18T11:26:05;-0.30;1.00
21023;DHT22;10669;51.076;3.714;2022-12-18T11:28:40;-0.20;1.00
21023;DHT22;10669;51.076;3.714;2022-12-18T11:34:00;0.00;1.00
21023;DHT22;10669;51.076;3.714;2022-12-18T11:36:32;-0.10;1.00
21023;DHT22;10669;51.076;3.714;2022-12-18T11:39:09;0.10;1.00
21023;DHT22;10669;51.076;3.714;2022-12-18T11:41:48;0.20;1.00
21023;DHT22;10669;51.076;3.714;2022-12-18T11:50:33;0.40;1.00
21023;DHT22;10669;51.076;3.714;2022-12-18T11:53:01;0.40;1.00
21023;DHT22;10669;51.076;3.714;2022-12-18T12:03:54;0.50;1.00
21023;DHT22;10669;51.076;3.714;2022-12-18T12:06:48;0.70;1.00
21023;DHT22;10669;51.076;3.714;2022-12-18T12:12:21;0.60;1.00
21023;DHT22;10669;51.076;3.714;2022-12-18T12:20:13;0.60;1.00
21023;DHT22;10669;51.076;3.714;2022-12-18T12:25:46;0.50;1.00
21023;DHT22;10669;51.076;3.714;2022-12-18T12:28:17;0.60;1.00
21023;DHT22;10669;51.076;3.714;2022-12-18T12:33:59;0.90;1.00
21023;DHT22;10669;51.076;3.714;2022-12-18T12:39:40;0.40;1.00
21023;DHT22;10669;51.076;3.714;2022-12-18T12:42:14;0.40;1.00
21023;DHT22;10669;51.076;3.714;2022-12-18T12:45:02;0.70;1.00
21023;DHT22;10669;51.076;3.714;2022-12-18T12:47:35;0.90;1.00
21023;DHT22;10669;51.076;3.714;2022-12-18T12:50:06;1.00;1.00
21023;DHT22;10669;51.076;3.714;2022-12-18T12:52:47;0.90;1.00
21023;DHT22;10669;51.076;3.714;2022-12-18T12:55:27;1.00;1.00
21023;DHT22;10669;51.076;3.714;2022-12-18T12:58:16;0.90;1.00
21023;DHT22;10669;51.076;3.714;2022-12-18T13:04:17;0.50;1.00
21023;DHT22;10669;51.076;3.714;2022-12-18T13:06:56;0.50;1.00
21023;DHT22;10669;51.076;3.714;2022-12-18T13:09:33;0.40;1.00
21023;DHT22;10669;51.076;3.714;2022-12-18T13:12:18;0.40;1.00
21023;DHT22;10669;51.076;3.714;2022-12-18T13:15:23;0.30;1.00
21023;DHT22;10669;51.076;3.714;2022-12-18T13:18:03;0.40;1.00
21023;DHT22;10669;51.076;3.714;2022-12-18T13:20:34;1.10;1.00
21023;DHT22;10669;51.076;3.714;2022-12-18T13:26:28;0.60;1.00
21023;DHT22;10669;51.076;3.714;2022-12-18T13:28:52;0.60;1.00
21023;DHT22;10669;51.076;3.714;2022-12-18T13:34:21;0.60;1.00
21023;DHT22;10669;51.076;3.714;2022-12-18T13:36:52;0.70;1.00
21023;DHT22;10669;51.076;3.714;2022-12-18T13:39:31;0.60;1.00
21023;DHT22;10669;51.076;3.714;2022-12-18T13:44:40;0.70;1.00
21023;DHT22;10669;51.076;3.714;2022-12-18T13:47:28;0.70;1.00
21023;DHT22;10669;51.076;3.714;2022-12-18T13:49:57;0.70;1.00
21023;DHT22;10669;51.076;3.714;2022-12-18T13:52:35;0.70;1.00
21023;DHT22;10669;51.076;3.714;2022-12-18T13:55:05;0.70;1.00
21023;DHT22;10669;51.076;3.714;2022-12-18T13:57:38;0.70;1.00
21023;DHT22;10669;51.076;3.714;2022-12-18T14:00:27;0.60;1.00
21023;DHT22;10669;51.076;3.714;2022-12-18T14:02:55;0.60;1.00
21023;DHT22;10669;51.076;3.714;2022-12-18T14:05:27;0.60;1.00
21023;DHT22;10669;51.076;3.714;2022-12-18T14:07:55;0.70;1.00
21023;DHT22;10669;51.076;3.714;2022-12-18T14:10:25;0.70;1.00
21023;DHT22;10669;51.076;3.714;2022-12-18T14:12:58;0.80;1.00
21023;DHT22;10669;51.076;3.714;2022-12-18T14:15:33;0.70;1.00
21023;DHT22;10669;51.076;3.714;2022-12-18T14:18:03;0.70;1.00
21023;DHT22;10669;51.076;3.714;2022-12-18T14:20:35;0.70;1.00
21023;DHT22;10669;51.076;3.714;2022-12-18T14:23:23;0.80;1.00
21023;DHT22;10669;51.076;3.714;2022-12-18T14:25:53;0.80;1.00
21023;DHT22;10669;51.076;3.714;2022-12-18T14:28:18;1.00;1.00
21023;DHT22;10669;51.076;3.714;2022-12-18T14:30:46;1.10;1.00
21023;DHT22;10669;51.076;3.714;2022-12-18T14:33:13;1.00;1.00
21023;DHT22;10669;51.076;3.714;2022-12-18T14:35:42;1.00;1.00
21023;DHT22;10669;51.076;3.714;2022-12-18T14:38:32;1.20;1.00
21023;DHT22;10669;51.076;3.714;2022-12-18T14:41:00;1.00;1.00
21023;DHT22;10669;51.076;3.714;2022-12-18T14:43:31;1.20;1.00
21023;DHT22;10669;51.076;3.714;2022-12-18T14:45:59;1.30;1.00
21023;DHT22;10669;51.076;3.714;2022-12-18T14:48:41;1.10;1.00
21023;DHT22;10669;51.076;3.714;2022-12-18T14:51:21;1.00;1.00
21023;DHT22;10669;51.076;3.714;2022-12-18T14:54:14;0.90;1.00
21023;DHT22;10669;51.076;3.714;2022-12-18T14:56:48;0.90;1.00
21023;DHT22;10669;51.076;3.714;2022-12-18T14:59:22;0.90;1.00
21023;DHT22;10669;51.076;3.714;2022-12-18T15:02:04;1.00;1.00
21023;DHT22;10669;51.076;3.714;2022-12-18T15:04:39;1.00;1.00
21023;DHT22;10669;51.076;3.714;2022-12-18T15:09:39;0.90;1.00
21023;DHT22;10669;51.076;3.714;2022-12-18T15:12:25;0.80;1.00
21023;DHT22;10669;51.076;3.714;2022-12-18T15:14:58;0.90;1.00
21023;DHT22;10669;51.076;3.714;2022-12-18T15:17:24;0.90;1.00
21023;DHT22;10669;51.076;3.714;2022-12-18T15:19:52;0.90;1.00
21023;DHT22;10669;51.076;3.714;2022-12-18T15:22:21;1.00;1.00
21023;DHT22;10669;51.076;3.714;2022-12-18T15:24:48;1.10;1.00
21023;DHT22;10669;51.076;3.714;2022-12-18T15:27:31;1.10;1.00
21023;DHT22;10669;51.076;3.714;2022-12-18T15:32:34;1.20;1.00
21023;DHT22;10669;51.076;3.714;2022-12-18T15:35:13;1.10;1.00
21023;DHT22;10669;51.076;3.714;2022-12-18T15:37:38;1.30;1.00
21023;DHT22;10669;51.076;3.714;2022-12-18T15:40:04;1.30;1.00
21023;DHT22;10669;51.076;3.714;2022-12-18T15:42:30;1.20;1.00
21023;DHT22;10669;51.076;3.714;2022-12-18T15:45:14;1.10;1.00
21023;DHT22;10669;51.076;3.714;2022-12-18T15:47:40;1.20;1.00
21023;DHT22;10669;51.076;3.714;2022-12-18T15:50:07;1.30;1.00
21023;DHT22;10669;51.076;3.714;2022-12-18T15:52:41;1.30;1.00
21023;DHT22;10669;51.076;3.714;2022-12-18T15:55:13;1.20;1.00
21023;DHT22;10669;51.076;3.714;2022-12-18T15:57:58;1.10;1.00
21023;DHT22;10669;51.076;3.714;2022-12-18T16:00:23;1.10;1.00
21023;DHT22;10669;51.076;3.714;2022-12-18T16:02:49;1.10;1.00
21023;DHT22;10669;51.076;3.714;2022-12-18T16:05:17;1.20;1.00
21023;DHT22;10669;51.076;3.714;2022-12-18T16:07:44;1.20;1.00
21023;DHT22;10669;51.076;3.714;2022-12-18T16:10:10;1.30;1.00
21023;DHT22;10669;51.076;3.714;2022-12-18T16:12:36;2.10;1.00
21023;DHT22;10669;51.076;3.714;2022-12-18T16:15:03;1.40;1.00
21023;DHT22;10669;51.076;3.714;2022-12-18T16:17:29;1.50;1.00
21023;DHT22;10669;51.076;3.714;2022-12-18T16:19:55;1.40;1.00
21023;DHT22;10669;51.076;3.714;2022-12-18T16:22:23;1.30;1.00
21023;DHT22;10669;51.076;3.714;2022-12-18T16:24:50;1.30;1.00
21023;DHT22;10669;51.076;3.714;2022-12-18T16:27:15;1.50;1.00
21023;DHT22;10669;51.076;3.714;2022-12-18T16:29:41;1.60;1.00
21023;DHT22;10669;51.076;3.714;2022-12-18T16:32:06;1.50;1.00
21023;DHT22;10669;51.076;3.714;2022-12-18T16:34:34;1.60;1.00
21023;DHT22;10669;51.076;3.714;2022-12-18T16:37:05;1.50;1.00
21023;DHT22;10669;51.076;3.714;2022-12-18T16:39:32;1.50;1.00
21023;DHT22;10669;51.076;3.714;2022-12-18T16:41:59;1.40;1.00
21023;DHT22;10669;51.076;3.714;2022-12-18T16:44:25;1.30;1.00
21023;DHT22;10669;51.076;3.714;2022-12-18T16:46:52;1.30;1.00
21023;DHT22;10669;51.076;3.714;2022-12-18T16:49:19;1.50;1.00
21023;DHT22;10669;51.076;3.714;2022-12-18T16:51:48;1.60;1.00
21023;DHT22;10669;51.076;3.714;2022-12-18T16:54:13;1.60;1.00
21023;DHT22;10669;51.076;3.714;2022-12-18T16:56:40;1.60;1.00
21023;DHT22;10669;51.076;3.714;2022-12-18T16:59:10;1.60;1.00
21023;DHT22;10669;51.076;3.714;2022-12-18T17:01:36;1.70;1.00
21023;DHT22;10669;51.076;3.714;2022-12-18T17:04:04;1.60;1.00
21023;DHT22;10669;51.076;3.714;2022-12-18T17:06:33;1.90;1.00
21023;DHT22;10669;51.076;3.714;2022-12-18T17:09:01;1.70;1.00
21023;DHT22;10669;51.076;3.714;2022-12-18T17:11:28;1.70;1.00
21023;DHT22;10669;51.076;3.714;2022-12-18T17:13:54;1.60;1.00
21023;DHT22;10669;51.076;3.714;2022-12-18T17:16:21;1.70;1.00
21023;DHT22;10669;51.076;3.714;2022-12-18T17:18:48;1.80;1.00
21023;DHT22;10669;51.076;3.714;2022-12-18T17:21:14;1.90;1.00
21023;DHT22;10669;51.076;3.714;2022-12-18T17:23:41;2.00;1.00
21023;DHT22;10669;51.076;3.714;2022-12-18T17:26:09;2.00;1.00
21023;DHT22;10669;51.076;3.714;2022-12-18T17:28:35;1.90;1.00
21023;DHT22;10669;51.076;3.714;2022-12-18T17:31:02;1.80;1.00
21023;DHT22;10669;51.076;3.714;2022-12-18T17:33:34;1.80;1.00
21023;DHT22;10669;51.076;3.714;2022-12-18T17:36:00;1.70;1.00
21023;DHT22;10669;51.076;3.714;2022-12-18T17:38:26;1.60;1.00
21023;DHT22;10669;51.076;3.714;2022-12-18T17:40:52;1.60;1.00
21023;DHT22;10669;51.076;3.714;2022-12-18T17:43:17;1.60;1.00
21023;DHT22;10669;51.076;3.714;2022-12-18T17:45:43;1.60;1.00
21023;DHT22;10669;51.076;3.714;2022-12-18T17:48:09;1.60;1.00
21023;DHT22;10669;51.076;3.714;2022-12-18T17:50:35;1.70;1.00
21023;DHT22;10669;51.076;3.714;2022-12-18T17:53:01;1.50;1.20
21023;DHT22;10669;51.076;3.714;2022-12-18T17:55:28;1.50;4.90
21023;DHT22;10669;51.076;3.714;2022-12-18T17:57:54;1.50;12.70